createdAt,value
2023-01-30T00:00:56.825Z,2.20
2023-01-30T00:03:32.380Z,2.50
2023-01-30T00:06:00.480Z,1.90
2023-01-30T00:08:36.308Z,1.60
2023-01-30T00:11:15.603Z,2.20
2023-01-30T00:13:51.330Z,2.80
2023-01-30T00:16:29.054Z,1.90
2023-01-30T00:19:05.843Z,2.50
2023-01-30T00:21:41.351Z,2.20
2023-01-30T00:24:09.273Z,2.90
2023-01-30T00:26:45.240Z,2.60
2023-01-30T00:29:29.844Z,2.30
2023-01-30T00:32:08.889Z,2.30
2023-01-30T00:35:23.038Z,2.70
2023-01-30T00:38:12.702Z,2.30
2023-01-30T00:40:57.528Z,2.30
2023-01-30T00:43:57.312Z,2.80
2023-01-30T00:46:52.262Z,2.90
2023-01-30T00:49:25.922Z,2.50
2023-01-30T00:54:54.859Z,2.30
2023-01-30T00:57:22.351Z,2.20
2023-01-30T01:00:00.363Z,2.80
2023-01-30T01:02:31.155Z,2.30
2023-01-30T01:04:59.223Z,2.70
2023-01-30T01:07:31.954Z,2.20
2023-01-30T01:10:03.646Z,1.90
2023-01-30T01:12:31.202Z,2.40
2023-01-30T01:15:01.933Z,2.00
2023-01-30T01:17:32.977Z,2.20
2023-01-30T01:20:32.703Z,1.60
2023-01-30T01:23:00.483Z,1.80
2023-01-30T01:25:27.678Z,2.20
2023-01-30T01:27:56.791Z,2.10
2023-01-30T01:30:27.366Z,2.00
2023-01-30T01:33:17.422Z,1.80
2023-01-30T01:35:52.332Z,1.50
2023-01-30T01:38:25.545Z,2.30
2023-01-30T01:44:09.463Z,1.90
2023-01-30T01:46:49.222Z,1.90
2023-01-30T01:49:32.188Z,1.30
2023-01-30T01:52:16.687Z,2.00
2023-01-30T01:55:25.956Z,1.70
2023-01-30T01:58:25.441Z,1.80
2023-01-30T02:01:12.359Z,2.20
2023-01-30T02:03:46.665Z,1.60
2023-01-30T02:06:32.886Z,2.00
2023-01-30T02:09:09.481Z,1.80
2023-01-30T02:12:06.942Z,2.20
2023-01-30T02:14:58.970Z,2.00
2023-01-30T02:17:37.798Z,1.80
2023-01-30T02:21:10.707Z,1.70
2023-01-30T02:24:20.405Z,1.70
2023-01-30T02:27:26.820Z,1.70
2023-01-30T02:31:07.056Z,2.00
2023-01-30T02:34:20.032Z,2.40
2023-01-30T02:37:25.346Z,1.40
2023-01-30T02:40:40.113Z,1.50
2023-01-30T02:44:04.197Z,1.70
2023-01-30T02:47:21.815Z,1.80
2023-01-30T02:50:33.140Z,2.20
2023-01-30T02:53:06.621Z,2.10
2023-01-30T02:55:46.998Z,2.00
2023-01-30T02:58:42.282Z,2.20
2023-01-30T03:02:08.185Z,1.70
2023-01-30T03:05:04.405Z,2.10
2023-01-30T03:08:12.269Z,2.00
2023-01-30T03:11:06.204Z,2.30
2023-01-30T03:14:19.970Z,1.80
2023-01-30T03:20:08.090Z,1.90
2023-01-30T03:22:59.564Z,2.00
2023-01-30T03:25:37.733Z,2.60
2023-01-30T03:28:13.008Z,1.90
2023-01-30T03:31:18.972Z,1.50
2023-01-30T03:37:01.676Z,1.80
2023-01-30T03:39:29.372Z,2.10
2023-01-30T03:49:06.732Z,1.90
2023-01-30T03:51:47.979Z,2.00
2023-01-30T03:54:28.580Z,2.50
2023-01-30T03:57:19.172Z,2.20
2023-01-30T03:59:52.333Z,2.00
2023-01-30T04:02:28.583Z,2.10
2023-01-30T04:05:09.255Z,2.00
2023-01-30T04:07:37.746Z,2.30
2023-01-30T04:13:03.207Z,1.90
2023-01-30T04:15:42.169Z,1.60
2023-01-30T04:18:47.885Z,1.90
2023-01-30T04:21:51.782Z,2.40
2023-01-30T04:24:38.907Z,1.80
2023-01-30T04:30:50.346Z,2.30
2023-01-30T04:34:04.571Z,2.10
2023-01-30T04:36:35.800Z,1.80
2023-01-30T04:39:28.862Z,2.50
2023-01-30T04:46:00.976Z,2.50
2023-01-30T04:55:13.178Z,2.90
2023-01-30T05:04:48.099Z,1.90
2023-01-30T05:11:01.284Z,1.60
2023-01-30T05:13:57.381Z,2.00
2023-01-30T05:16:52.650Z,2.50
2023-01-30T05:19:54.312Z,1.90
2023-01-30T05:22:51.372Z,2.70
2023-01-30T05:25:39.165Z,2.60
2023-01-30T05:31:43.420Z,2.70
2023-01-30T05:34:54.644Z,2.00
2023-01-30T05:41:06.339Z,2.70
2023-01-30T05:44:06.094Z,2.10
2023-01-30T05:53:41.280Z,2.30
2023-01-30T05:56:50.481Z,2.20
2023-01-30T06:03:23.547Z,2.30
2023-01-30T06:15:53.086Z,2.10
2023-01-30T06:18:24.361Z,2.70
2023-01-30T06:21:04.803Z,2.50
2023-01-30T06:23:54.805Z,2.50
2023-01-30T06:30:00.179Z,2.70
2023-01-30T06:35:51.181Z,3.00
2023-01-30T06:38:23.303Z,2.90
2023-01-30T06:41:20.605Z,2.80
2023-01-30T06:44:11.859Z,2.60
2023-01-30T06:46:49.230Z,3.20
2023-01-30T06:49:26.864Z,2.50
2023-01-30T06:52:05.047Z,2.50
2023-01-30T06:58:17.414Z,2.30
2023-01-30T07:00:53.079Z,2.70
2023-01-30T07:03:21.647Z,2.90
2023-01-30T07:09:13.395Z,2.40
2023-01-30T07:11:47.372Z,2.60
2023-01-30T07:14:14.558Z,2.30
2023-01-30T07:16:49.931Z,3.10
2023-01-30T07:19:22.420Z,3.50
2023-01-30T07:22:09.243Z,2.70
2023-01-30T07:24:39.786Z,2.40
2023-01-30T07:27:11.745Z,2.40
2023-01-30T07:36:58.193Z,2.80
2023-01-30T07:39:40.918Z,3.20
2023-01-30T07:42:14.200Z,3.00
2023-01-30T07:48:26.260Z,2.60
2023-01-30T07:57:08.030Z,2.90
2023-01-30T07:59:55.052Z,3.00
2023-01-30T08:02:38.971Z,2.60
2023-01-30T08:05:25.114Z,2.80
2023-01-30T08:29:43.265Z,2.00
2023-01-30T08:32:11.139Z,2.60
2023-01-30T08:51:25.732Z,2.30
2023-01-30T09:06:17.223Z,2.60
2023-01-30T09:09:06.457Z,2.00
2023-01-30T09:15:23.885Z,3.00
2023-01-30T09:18:19.925Z,3.30
2023-01-30T09:21:15.410Z,2.40
2023-01-30T09:23:46.722Z,2.80
2023-01-30T09:26:15.506Z,3.60
2023-01-30T09:28:42.661Z,2.90
2023-01-30T09:31:10.204Z,2.90
2023-01-30T09:33:37.943Z,2.50
2023-01-30T09:36:05.514Z,2.90
2023-01-30T09:38:32.834Z,2.60
2023-01-30T09:41:00.005Z,2.30
2023-01-30T09:43:38.295Z,2.90
2023-01-30T09:46:11.288Z,2.60
2023-01-30T09:48:59.397Z,2.60
2023-01-30T09:51:39.908Z,2.50
2023-01-30T09:54:36.172Z,2.40
2023-01-30T09:57:24.535Z,2.20
2023-01-30T10:00:32.065Z,2.50
2023-01-30T10:03:08.550Z,3.00
2023-01-30T10:05:44.854Z,2.80
2023-01-30T10:08:24.477Z,2.20
2023-01-30T10:14:36.249Z,3.10
2023-01-30T10:17:34.114Z,2.90
2023-01-30T13:10:41.724Z,1.50
2023-01-30T13:17:34.807Z,1.70
2023-01-30T13:21:10.068Z,2.20
2023-01-30T13:24:27.175Z,1.40
2023-01-30T13:27:21.301Z,4.60
2023-01-30T13:29:51.926Z,1.80
2023-01-30T13:33:01.187Z,1.00
2023-01-30T13:35:43.313Z,1.50
2023-01-30T13:38:20.956Z,1.20
2023-01-30T13:40:57.076Z,1.30
2023-01-30T13:44:22.233Z,1.30
2023-01-30T13:47:20.697Z,1.20
2023-01-30T13:50:24.197Z,1.30
2023-01-30T13:53:32.917Z,1.20
2023-01-30T13:57:10.079Z,1.60
2023-01-30T14:00:04.644Z,1.70
2023-01-30T14:03:24.071Z,1.40
2023-01-30T14:05:51.589Z,1.20
2023-01-30T14:08:27.434Z,1.40
2023-01-30T14:10:57.150Z,1.50
2023-01-30T14:13:26.178Z,1.50
2023-01-30T14:15:57.284Z,1.40
2023-01-30T14:18:50.652Z,1.60
2023-01-30T14:21:29.476Z,1.40
2023-01-30T14:24:04.646Z,1.10
2023-01-30T14:27:23.023Z,1.30
2023-01-30T14:29:54.920Z,1.20
2023-01-30T14:32:22.152Z,1.40
2023-01-30T14:35:16.805Z,0.80
2023-01-30T14:37:53.199Z,0.80
2023-01-30T14:40:23.242Z,1.60
2023-01-30T14:43:14.329Z,1.20
2023-01-30T14:45:51.082Z,1.10
2023-01-30T14:48:41.351Z,0.80
2023-01-30T14:51:21.084Z,0.90
2023-01-30T14:53:53.728Z,0.70
2023-01-30T14:56:40.665Z,0.70
2023-01-30T14:59:29.896Z,0.80
2023-01-30T15:02:12.055Z,0.70
2023-01-30T15:04:56.234Z,0.60
2023-01-30T15:07:28.324Z,0.80
2023-01-30T15:10:03.647Z,1.10
2023-01-30T15:12:46.426Z,1.00
2023-01-30T15:15:56.284Z,1.20
2023-01-30T15:19:07.331Z,0.70
2023-01-30T15:22:12.016Z,1.10
2023-01-30T15:25:36.356Z,1.90
2023-01-30T15:28:48.852Z,1.40
2023-01-30T15:31:37.779Z,0.80
2023-01-30T15:34:47.171Z,0.80
2023-01-30T15:37:41.440Z,0.90
2023-01-30T15:40:28.532Z,1.10
2023-01-30T15:43:00.114Z,0.70
2023-01-30T15:46:31.289Z,0.80
2023-01-30T15:56:50.031Z,2.80
2023-01-30T15:59:41.585Z,2.40
2023-01-30T16:02:50.710Z,1.10
2023-01-30T16:05:26.943Z,1.10
2023-01-30T16:07:56.964Z,0.70
2023-01-30T16:10:36.905Z,0.90
2023-01-30T16:13:05.853Z,1.00
2023-01-30T16:15:57.707Z,0.70
2023-01-30T16:18:34.333Z,1.00
2023-01-30T16:21:29.942Z,1.20
2023-01-30T17:18:31.601Z,2.10
2023-01-30T17:20:21.545Z,1.60
2023-01-30T17:23:17.007Z,1.90
2023-01-30T17:25:54.751Z,1.10
2023-01-30T17:28:42.002Z,1.30
2023-01-30T17:31:12.753Z,1.20
2023-01-30T17:33:41.266Z,1.40
2023-01-30T17:36:25.347Z,1.40
2023-01-30T17:38:52.769Z,1.10
2023-01-30T17:41:29.740Z,1.20
2023-01-30T17:43:58.335Z,1.20
2023-01-30T17:46:39.767Z,1.50
2023-01-30T17:49:13.705Z,1.60
2023-01-30T17:51:44.940Z,1.20
2023-01-30T17:54:19.228Z,1.20
2023-01-30T17:57:01.089Z,0.90
2023-01-30T17:59:32.727Z,1.20
2023-01-30T18:02:00.923Z,1.00
2023-01-30T18:04:37.330Z,0.90
2023-01-30T18:07:13.561Z,1.00
2023-01-30T18:09:44.966Z,0.60
2023-01-30T18:12:15.747Z,0.90
2023-01-30T18:14:44.521Z,1.30
2023-01-30T18:17:13.425Z,1.00
2023-01-30T18:19:40.935Z,1.20
2023-01-30T18:22:11.431Z,1.20
2023-01-30T18:24:43.267Z,1.00
2023-01-30T18:27:12.872Z,0.60
2023-01-30T18:29:40.025Z,1.00
2023-01-30T18:32:08.862Z,0.90
2023-01-30T18:34:40.335Z,0.80
2023-01-30T18:37:09.585Z,0.80
2023-01-30T18:39:37.858Z,1.20
2023-01-30T18:42:07.705Z,0.80
2023-01-30T18:44:36.276Z,0.70
2023-01-30T18:47:05.348Z,1.70
2023-01-30T18:49:38.825Z,1.80
2023-01-30T18:52:07.252Z,1.60
2023-01-30T18:54:37.247Z,1.10
2023-01-30T18:57:05.061Z,0.80
2023-01-30T18:59:32.480Z,0.90
2023-01-30T19:02:19.969Z,0.80
2023-01-30T19:04:48.524Z,0.70
2023-01-30T19:07:16.871Z,0.60
2023-01-30T19:09:45.754Z,1.00
2023-01-30T19:12:34.646Z,0.80
2023-01-30T19:15:07.843Z,0.90
2023-01-30T19:17:35.514Z,1.00
2023-01-30T19:20:10.795Z,1.30
2023-01-30T19:22:43.617Z,1.10
2023-01-30T19:25:13.650Z,1.00
2023-01-30T19:27:43.374Z,1.00
2023-01-30T19:30:12.702Z,0.70
2023-01-30T19:32:41.185Z,0.70
2023-01-30T19:35:09.535Z,1.20
2023-01-30T19:37:39.914Z,1.50
2023-01-30T19:43:10.398Z,0.70
2023-01-30T19:45:42.521Z,0.50
2023-01-30T19:48:14.707Z,0.50
2023-01-30T19:50:43.698Z,0.90
2023-01-30T19:53:12.528Z,0.80
2023-01-30T19:55:41.971Z,0.70
2023-01-30T19:58:10.822Z,0.80
2023-01-30T20:01:03.134Z,0.90
2023-01-30T20:03:36.387Z,1.00
2023-01-30T20:06:20.025Z,0.50
2023-01-30T20:08:49.784Z,0.60
2023-01-30T20:11:19.221Z,0.70
2023-01-30T20:13:48.727Z,0.70
2023-01-30T20:16:31.286Z,0.90
2023-01-30T20:19:04.861Z,0.80
2023-01-30T20:21:35.724Z,1.20
2023-01-30T20:24:18.860Z,0.90
2023-01-30T20:26:48.389Z,0.80
2023-01-30T20:29:21.758Z,0.90
2023-01-30T20:31:55.242Z,1.10
2023-01-30T20:34:22.625Z,0.70
2023-01-30T20:36:49.980Z,0.90
2023-01-30T20:39:22.308Z,0.80
2023-01-30T20:41:49.802Z,1.00
2023-01-30T20:44:18.146Z,0.90
2023-01-30T20:46:49.875Z,0.60
2023-01-30T20:49:19.469Z,0.70
2023-01-30T20:51:50.093Z,1.00
2023-01-30T20:54:24.341Z,1.40
2023-01-30T20:57:12.313Z,1.00
2023-01-30T20:59:43.287Z,1.10
2023-01-30T21:02:16.115Z,0.90
2023-01-30T21:04:46.241Z,1.10
2023-01-30T21:07:13.457Z,0.70
2023-01-30T21:09:41.947Z,0.60
2023-01-30T21:12:13.142Z,0.90
2023-01-30T21:14:44.102Z,0.60
2023-01-30T21:17:11.568Z,0.70
2023-01-30T21:19:41.973Z,0.90
2023-01-30T21:22:10.750Z,0.70
2023-01-30T21:24:42.083Z,0.70
2023-01-30T21:27:09.431Z,0.80
2023-01-30T21:29:56.563Z,0.90
2023-01-30T21:32:23.663Z,0.70
2023-01-30T21:34:50.803Z,0.80
2023-01-30T21:37:37.851Z,0.90
2023-01-30T21:40:24.096Z,0.80
2023-01-30T21:43:09.961Z,0.70
2023-01-30T21:45:39.088Z,1.30
2023-01-30T21:48:06.580Z,0.90
2023-01-30T21:50:38.375Z,0.80
2023-01-30T21:53:11.470Z,1.00
2023-01-30T21:55:38.946Z,1.00
2023-01-30T21:58:06.518Z,0.80
2023-01-30T22:00:36.807Z,0.70
2023-01-30T22:03:04.033Z,1.10
2023-01-30T22:05:36.568Z,1.10
2023-01-30T22:08:05.234Z,0.70
2023-01-30T22:10:32.500Z,1.00
2023-01-30T22:13:02.025Z,1.00
2023-01-30T22:15:33.335Z,0.80
2023-01-30T22:18:00.442Z,0.80
2023-01-30T22:20:28.692Z,1.30
2023-01-30T22:22:55.822Z,1.10
2023-01-30T22:25:23.674Z,0.80
2023-01-30T22:27:50.844Z,0.90
2023-01-30T22:30:18.108Z,0.90
2023-01-30T22:32:45.565Z,0.80
2023-01-30T22:35:13.821Z,0.80
2023-01-30T22:37:41.093Z,1.10
2023-01-30T22:40:09.855Z,0.70
2023-01-30T22:42:37.665Z,0.80
2023-01-30T22:45:06.230Z,0.90
2023-01-30T22:47:34.000Z,0.80
2023-01-30T22:50:14.340Z,0.80
2023-01-30T22:52:42.530Z,1.00
2023-01-30T22:55:10.824Z,0.70
2023-01-30T22:57:39.585Z,0.70
2023-01-30T23:00:20.487Z,0.60
2023-01-30T23:02:48.393Z,0.70
2023-01-30T23:05:18.375Z,0.90
2023-01-30T23:07:46.371Z,0.90
2023-01-30T23:10:17.045Z,1.10
2023-01-30T23:13:02.846Z,0.90
2023-01-30T23:15:34.797Z,0.50
2023-01-30T23:18:20.533Z,1.00
2023-01-30T23:20:47.857Z,0.60
2023-01-30T23:23:15.038Z,1.00
2023-01-30T23:25:42.536Z,0.50
2023-01-30T23:28:11.401Z,0.80
2023-01-30T23:30:40.235Z,0.80
2023-01-30T23:33:08.837Z,0.80
2023-01-30T23:35:37.769Z,0.60
2023-01-30T23:38:21.596Z,0.80
2023-01-30T23:40:49.890Z,0.70
2023-01-30T23:43:20.874Z,0.90
2023-01-30T23:45:53.683Z,0.70
2023-01-30T23:48:20.947Z,0.90
2023-01-30T23:50:48.051Z,0.60
2023-01-30T23:53:15.814Z,1.10
2023-01-30T23:55:52.703Z,0.70
2023-01-30T23:58:23.557Z,0.40
